createdAt,value
2023-08-29T00:10:45.159Z,14.79
2023-08-29T00:39:07.387Z,14.74
2023-08-29T01:07:45.756Z,14.85
2023-08-29T01:36:14.042Z,14.57
2023-08-29T02:04:35.418Z,14.41
2023-08-29T02:33:11.876Z,14.34
2023-08-29T03:01:36.827Z,14.28
2023-08-29T03:30:03.319Z,14.35
2023-08-29T03:58:06.689Z,14.1
2023-08-29T04:26:25.978Z,14.04
2023-08-29T04:55:12.420Z,13.99
2023-08-29T05:23:57.182Z,14.15
2023-08-29T05:52:17.492Z,14.3
2023-08-29T06:20:34.458Z,14.38
2023-08-29T06:48:56.598Z,14.64
2023-08-29T07:17:19.064Z,15.22
2023-08-29T07:45:31.858Z,15.61
2023-08-29T08:14:02.514Z,16.6
2023-08-29T08:42:45.141Z,17.23
2023-08-29T09:11:02.373Z,17.38
2023-08-29T09:39:58.486Z,17.69
2023-08-29T10:08:38.187Z,19.18
2023-08-29T10:37:18.440Z,18.36
2023-08-29T11:05:52.110Z,19.66
2023-08-29T11:34:27.065Z,20.27
2023-08-29T12:02:44.905Z,19.94
2023-08-29T12:30:44.673Z,21.22
2023-08-29T12:58:45.485Z,20.44
2023-08-29T13:26:51.396Z,19.89
2023-08-29T13:55:24.934Z,19.97
2023-08-29T14:23:38.464Z,20.22
2023-08-29T14:52:10.013Z,20.31
2023-08-29T15:20:04.803Z,19.74
2023-08-29T15:48:18.195Z,19.42
2023-08-29T16:16:34.362Z,19.07
2023-08-29T16:44:44.264Z,18.52
2023-08-29T17:13:04.184Z,18.13
2023-08-29T17:41:29.664Z,18.26
2023-08-29T18:09:43.798Z,17.96
2023-08-29T18:38:13.468Z,17.63
2023-08-29T19:06:36.679Z,17.13
2023-08-29T19:35:12.683Z,16.98
2023-08-29T20:03:45.859Z,16.68
2023-08-29T20:32:08.439Z,16.44
2023-08-29T21:00:32.395Z,15.86
2023-08-29T21:29:13.497Z,15.66
2023-08-29T21:57:43.963Z,15.27
2023-08-29T22:26:19.658Z,15.12
2023-08-29T22:54:59.077Z,14.74
2023-08-29T23:23:57.273Z,14.58
2023-08-29T23:52:46.078Z,14.37
